sensor_id;sensor_type;location;lat;lon;timestamp;pressure;altitude;pressure_sealevel;temperature;humidity
36748;BME280;22716;51.556;5.080;2023-04-28T00:00:13;100650.59;;;10.85;71.30
36748;BME280;22716;51.556;5.080;2023-04-28T00:02:44;100637.53;;;10.81;71.97
36748;BME280;22716;51.556;5.080;2023-04-28T00:05:14;100636.72;;;10.80;72.47
36748;BME280;22716;51.556;5.080;2023-04-28T00:07:42;100638.47;;;10.78;72.51
36748;BME280;22716;51.556;5.080;2023-04-28T00:10:11;100637.59;;;10.78;73.23
36748;BME280;22716;51.556;5.080;2023-04-28T00:12:40;100630.75;;;10.67;73.46
36748;BME280;22716;51.556;5.080;2023-04-28T00:15:09;100635.84;;;10.80;73.96
36748;BME280;22716;51.556;5.080;2023-04-28T00:17:38;100631.47;;;10.80;74.47
36748;BME280;22716;51.556;5.080;2023-04-28T00:20:11;100624.47;;;10.79;74.80
36748;BME280;22716;51.556;5.080;2023-04-28T00:22:40;100611.34;;;10.81;75.69
36748;BME280;22716;51.556;5.080;2023-04-28T00:25:09;100584.34;;;10.77;75.93
36748;BME280;22716;51.556;5.080;2023-04-28T00:27:38;100589.59;;;10.77;76.43
36748;BME280;22716;51.556;5.080;2023-04-28T00:30:08;100589.53;;;10.79;77.19
36748;BME280;22716;51.556;5.080;2023-04-28T00:32:37;100589.59;;;10.77;77.61
36748;BME280;22716;51.556;5.080;2023-04-28T00:35:07;100585.19;;;10.78;78.19
36748;BME280;22716;51.556;5.080;2023-04-28T00:37:39;100593.09;;;10.75;78.94
36748;BME280;22716;51.556;5.080;2023-04-28T00:40:09;100597.41;;;10.79;79.48
36748;BME280;22716;51.556;5.080;2023-04-28T00:42:38;100590.41;;;10.78;79.64
36748;BME280;22716;51.556;5.080;2023-04-28T00:45:08;100577.41;;;10.73;79.97
36748;BME280;22716;51.556;5.080;2023-04-28T00:47:37;100575.75;;;10.67;80.27
36748;BME280;22716;51.556;5.080;2023-04-28T00:50:07;100571.44;;;10.63;81.30
36748;BME280;22716;51.556;5.080;2023-04-28T00:52:38;100571.38;;;10.66;81.47
36748;BME280;22716;51.556;5.080;2023-04-28T00:55:08;100574.00;;;10.66;81.98
36748;BME280;22716;51.556;5.080;2023-04-28T00:57:37;100566.19;;;10.63;82.22
36748;BME280;22716;51.556;5.080;2023-04-28T01:00:07;100527.25;;;10.39;82.56
36748;BME280;22716;51.556;5.080;2023-04-28T01:02:36;100553.25;;;10.51;82.92
36748;BME280;22716;51.556;5.080;2023-04-28T01:05:06;100549.91;;;10.45;83.42
36748;BME280;22716;51.556;5.080;2023-04-28T01:07:38;100536.81;;;10.43;84.16
36748;BME280;22716;51.556;5.080;2023-04-28T01:10:09;100532.47;;;10.41;84.91
36748;BME280;22716;51.556;5.080;2023-04-28T01:12:37;100532.53;;;10.38;85.32
36748;BME280;22716;51.556;5.080;2023-04-28T01:15:11;100526.47;;;10.34;85.88
36748;BME280;22716;51.556;5.080;2023-04-28T01:17:44;100526.53;;;10.30;86.40
36748;BME280;22716;51.556;5.080;2023-04-28T01:20:13;100530.81;;;10.34;86.53
36748;BME280;22716;51.556;5.080;2023-04-28T01:22:44;100528.31;;;10.26;86.59
36748;BME280;22716;51.556;5.080;2023-04-28T01:25:16;100529.25;;;10.24;86.75
36748;BME280;22716;51.556;5.080;2023-04-28T01:27:44;100531.00;;;10.22;87.25
36748;BME280;22716;51.556;5.080;2023-04-28T01:30:13;100522.25;;;10.23;87.33
36748;BME280;22716;51.556;5.080;2023-04-28T01:32:42;100510.16;;;10.14;87.64
36748;BME280;22716;51.556;5.080;2023-04-28T01:35:11;100525.88;;;10.16;88.12
36748;BME280;22716;51.556;5.080;2023-04-28T01:37:39;100518.81;;;10.19;88.20
36748;BME280;22716;51.556;5.080;2023-04-28T01:40:10;100513.56;;;10.21;88.27
36748;BME280;22716;51.556;5.080;2023-04-28T01:42:41;100510.91;;;10.22;88.56
36748;BME280;22716;51.556;5.080;2023-04-28T01:45:11;100485.69;;;10.17;88.94
36748;BME280;22716;51.556;5.080;2023-04-28T01:47:40;100495.06;;;10.31;88.80
36748;BME280;22716;51.556;5.080;2023-04-28T01:50:09;100494.19;;;10.32;88.94
36748;BME280;22716;51.556;5.080;2023-04-28T01:52:38;100491.72;;;10.22;89.30
36748;BME280;22716;51.556;5.080;2023-04-28T01:55:07;100506.56;;;10.23;89.28
36748;BME280;22716;51.556;5.080;2023-04-28T01:57:36;100499.69;;;10.16;89.55
36748;BME280;22716;51.556;5.080;2023-04-28T02:00:09;100498.84;;;10.12;89.63
36748;BME280;22716;51.556;5.080;2023-04-28T02:02:38;100484.88;;;10.10;89.94
36748;BME280;22716;51.556;5.080;2023-04-28T02:05:07;100461.53;;;9.98;89.93
36748;BME280;22716;51.556;5.080;2023-04-28T02:07:36;100475.41;;;10.01;90.14
36748;BME280;22716;51.556;5.080;2023-04-28T02:10:07;100468.41;;;10.03;90.73
36748;BME280;22716;51.556;5.080;2023-04-28T02:12:36;100455.47;;;9.94;91.04
36748;BME280;22716;51.556;5.080;2023-04-28T02:15:10;100456.28;;;9.98;91.18
36748;BME280;22716;51.556;5.080;2023-04-28T02:17:39;100458.00;;;10.00;91.53
36748;BME280;22716;51.556;5.080;2023-04-28T02:20:09;100436.31;;;9.91;91.58
36748;BME280;22716;51.556;5.080;2023-04-28T02:22:39;100437.25;;;9.85;92.20
36748;BME280;22716;51.556;5.080;2023-04-28T02:25:08;100432.03;;;9.85;92.45
36748;BME280;22716;51.556;5.080;2023-04-28T02:27:37;100425.13;;;9.78;92.82
36748;BME280;22716;51.556;5.080;2023-04-28T02:30:10;100431.25;;;9.79;93.30
36748;BME280;22716;51.556;5.080;2023-04-28T02:32:38;100422.56;;;9.77;93.66
36748;BME280;22716;51.556;5.080;2023-04-28T02:35:08;100437.34;;;9.78;93.66
36748;BME280;22716;51.556;5.080;2023-04-28T02:37:36;100429.59;;;9.72;94.14
36748;BME280;22716;51.556;5.080;2023-04-28T02:40:07;100430.38;;;9.78;94.49
36748;BME280;22716;51.556;5.080;2023-04-28T02:42:36;100419.03;;;9.78;94.85
36748;BME280;22716;51.556;5.080;2023-04-28T02:45:06;100420.81;;;9.77;95.39
36748;BME280;22716;51.556;5.080;2023-04-28T02:47:38;100430.41;;;9.77;95.40
36748;BME280;22716;51.556;5.080;2023-04-28T02:50:08;100411.19;;;9.79;95.58
36748;BME280;22716;51.556;5.080;2023-04-28T02:52:37;100413.78;;;9.79;95.70
36748;BME280;22716;51.556;5.080;2023-04-28T02:55:07;100420.78;;;9.80;96.11
36748;BME280;22716;51.556;5.080;2023-04-28T02:57:36;100415.41;;;9.88;96.03
36748;BME280;22716;51.556;5.080;2023-04-28T03:00:06;100420.69;;;9.85;96.31
36748;BME280;22716;51.556;5.080;2023-04-28T03:02:38;100421.59;;;9.82;96.70
36748;BME280;22716;51.556;5.080;2023-04-28T03:05:08;100412.81;;;9.86;96.79
36748;BME280;22716;51.556;5.080;2023-04-28T03:07:37;100413.72;;;9.85;97.10
36748;BME280;22716;51.556;5.080;2023-04-28T03:10:07;100403.25;;;9.84;97.31
36748;BME280;22716;51.556;5.080;2023-04-28T03:12:36;100403.25;;;9.84;97.62
36748;BME280;22716;51.556;5.080;2023-04-28T03:15:07;100396.44;;;9.74;97.94
36748;BME280;22716;51.556;5.080;2023-04-28T03:17:38;100406.81;;;9.80;98.23
36748;BME280;22716;51.556;5.080;2023-04-28T03:20:09;100387.69;;;9.76;98.29
36748;BME280;22716;51.556;5.080;2023-04-28T03:22:38;100411.00;;;9.90;98.30
36748;BME280;22716;51.556;5.080;2023-04-28T03:25:07;100404.03;;;9.92;98.38
36748;BME280;22716;51.556;5.080;2023-04-28T03:27:36;100406.66;;;9.92;98.69
36748;BME280;22716;51.556;5.080;2023-04-28T03:30:07;100391.81;;;9.89;99.13
36748;BME280;22716;51.556;5.080;2023-04-28T03:32:38;100393.63;;;9.87;99.63
36748;BME280;22716;51.556;5.080;2023-04-28T03:35:08;100392.75;;;9.88;99.80
36748;BME280;22716;51.556;5.080;2023-04-28T03:37:37;100394.44;;;9.89;99.97
36748;BME280;22716;51.556;5.080;2023-04-28T03:40:07;100386.59;;;9.89;99.80
36748;BME280;22716;51.556;5.080;2023-04-28T03:42:36;100388.28;;;9.93;100.00
36748;BME280;22716;51.556;5.080;2023-04-28T03:45:06;100386.56;;;9.92;100.00
36748;BME280;22716;51.556;5.080;2023-04-28T03:47:38;100376.00;;;9.98;100.00
36748;BME280;22716;51.556;5.080;2023-04-28T03:50:08;100383.88;;;9.97;100.00
36748;BME280;22716;51.556;5.080;2023-04-28T03:52:36;100382.19;;;9.93;100.00
36748;BME280;22716;51.556;5.080;2023-04-28T03:55:06;100374.25;;;9.99;100.00
36748;BME280;22716;51.556;5.080;2023-04-28T03:57:35;100372.50;;;10.01;100.00
36748;BME280;22716;51.556;5.080;2023-04-28T04:00:06;100371.63;;;9.99;100.00
36748;BME280;22716;51.556;5.080;2023-04-28T04:02:37;100373.38;;;9.98;100.00
36748;BME280;22716;51.556;5.080;2023-04-28T04:05:07;100362.94;;;9.97;100.00
36748;BME280;22716;51.556;5.080;2023-04-28T04:07:36;100362.13;;;9.93;100.00
36748;BME280;22716;51.556;5.080;2023-04-28T04:10:06;100368.22;;;9.92;100.00
36748;BME280;22716;51.556;5.080;2023-04-28T04:12:35;100362.94;;;9.95;100.00
36748;BME280;22716;51.556;5.080;2023-04-28T04:15:06;100363.97;;;9.87;100.00
36748;BME280;22716;51.556;5.080;2023-04-28T04:17:37;100354.50;;;9.80;100.00
36748;BME280;22716;51.556;5.080;2023-04-28T04:20:08;100332.00;;;9.67;100.00
36748;BME280;22716;51.556;5.080;2023-04-28T04:22:37;100356.09;;;9.87;100.00
36748;BME280;22716;51.556;5.080;2023-04-28T04:25:07;100349.13;;;9.89;100.00
36748;BME280;22716;51.556;5.080;2023-04-28T04:27:35;100350.81;;;9.91;100.00
36748;BME280;22716;51.556;5.080;2023-04-28T04:30:06;100335.94;;;9.93;100.00
36748;BME280;22716;51.556;5.080;2023-04-28T04:32:35;100335.13;;;9.91;100.00
36748;BME280;22716;51.556;5.080;2023-04-28T04:35:08;100329.97;;;9.85;100.00
36748;BME280;22716;51.556;5.080;2023-04-28T04:37:37;100333.56;;;9.80;100.00
36748;BME280;22716;51.556;5.080;2023-04-28T04:40:07;100337.06;;;9.79;100.00
36748;BME280;22716;51.556;5.080;2023-04-28T04:42:36;100333.56;;;9.80;100.00
36748;BME280;22716;51.556;5.080;2023-04-28T04:45:06;100332.66;;;9.81;100.00
36748;BME280;22716;51.556;5.080;2023-04-28T04:47:35;100327.41;;;9.81;100.00
36748;BME280;22716;51.556;5.080;2023-04-28T04:50:08;100325.63;;;9.86;100.00
36748;BME280;22716;51.556;5.080;2023-04-28T04:52:37;100322.94;;;9.89;100.00
36748;BME280;22716;51.556;5.080;2023-04-28T04:55:07;100310.66;;;9.94;100.00
36748;BME280;22716;51.556;5.080;2023-04-28T04:57:36;100315.78;;;10.00;100.00
36748;BME280;22716;51.556;5.080;2023-04-28T05:00:06;100314.81;;;10.05;100.00
36748;BME280;22716;51.556;5.080;2023-04-28T05:02:35;100326.13;;;10.09;100.00
36748;BME280;22716;51.556;5.080;2023-04-28T05:05:07;100327.03;;;10.06;100.00
36748;BME280;22716;51.556;5.080;2023-04-28T05:07:36;100321.78;;;10.06;100.00
36748;BME280;22716;51.556;5.080;2023-04-28T05:10:06;100337.50;;;10.05;100.00
36748;BME280;22716;51.556;5.080;2023-04-28T05:12:36;100330.63;;;9.99;100.00
36748;BME280;22716;51.556;5.080;2023-04-28T05:15:06;100328.03;;;9.98;100.00
36748;BME280;22716;51.556;5.080;2023-04-28T05:17:35;100319.31;;;9.97;100.00
36748;BME280;22716;51.556;5.080;2023-04-28T05:20:08;100321.81;;;10.05;100.00
36748;BME280;22716;51.556;5.080;2023-04-28T05:22:38;100322.75;;;10.01;100.00
36748;BME280;22716;51.556;5.080;2023-04-28T05:25:08;100322.72;;;10.02;100.00
36748;BME280;22716;51.556;5.080;2023-04-28T05:27:37;100315.78;;;10.00;100.00
36748;BME280;22716;51.556;5.080;2023-04-28T05:30:07;100314.78;;;10.07;100.00
36748;BME280;22716;51.556;5.080;2023-04-28T05:32:36;100315.59;;;10.12;100.00
36748;BME280;22716;51.556;5.080;2023-04-28T05:35:08;100319.94;;;10.13;100.00
36748;BME280;22716;51.556;5.080;2023-04-28T05:37:37;100319.91;;;10.16;100.00
36748;BME280;22716;51.556;5.080;2023-04-28T05:40:09;100312.97;;;10.13;100.00
36748;BME280;22716;51.556;5.080;2023-04-28T05:42:38;100311.22;;;10.16;100.00
36748;BME280;22716;51.556;5.080;2023-04-28T05:45:09;100306.81;;;10.16;100.00
36748;BME280;22716;51.556;5.080;2023-04-28T05:47:38;100307.63;;;10.20;100.00
36748;BME280;22716;51.556;5.080;2023-04-28T05:50:09;100310.13;;;10.26;100.00
36748;BME280;22716;51.556;5.080;2023-04-28T05:52:38;100295.34;;;10.23;100.00
36748;BME280;22716;51.556;5.080;2023-04-28T05:55:08;100307.41;;;10.32;100.00
36748;BME280;22716;51.556;5.080;2023-04-28T05:57:37;100310.03;;;10.33;100.00
36748;BME280;22716;51.556;5.080;2023-04-28T06:00:08;100312.50;;;10.41;100.00
36748;BME280;22716;51.556;5.080;2023-04-28T06:02:37;100312.38;;;10.47;100.00
36748;BME280;22716;51.556;5.080;2023-04-28T06:05:09;100299.25;;;10.48;100.00
36748;BME280;22716;51.556;5.080;2023-04-28T06:07:38;100285.44;;;10.40;100.00
36748;BME280;22716;51.556;5.080;2023-04-28T06:10:09;100304.31;;;10.57;100.00
36748;BME280;22716;51.556;5.080;2023-04-28T06:12:38;100315.53;;;10.64;100.00
36748;BME280;22716;51.556;5.080;2023-04-28T06:15:07;100311.13;;;10.67;100.00
36748;BME280;22716;51.556;5.080;2023-04-28T06:17:37;100305.81;;;10.71;100.00
36748;BME280;22716;51.556;5.080;2023-04-28T06:20:11;100297.25;;;10.61;100.00
36748;BME280;22716;51.556;5.080;2023-04-28T06:22:41;100320.63;;;10.73;100.00
36748;BME280;22716;51.556;5.080;2023-04-28T06:25:09;100309.25;;;10.73;100.00
36748;BME280;22716;51.556;5.080;2023-04-28T06:27:38;100305.63;;;10.80;100.00
36748;BME280;22716;51.556;5.080;2023-04-28T06:30:08;100309.03;;;10.85;100.00
36748;BME280;22716;51.556;5.080;2023-04-28T06:32:37;100301.28;;;10.79;100.00
36748;BME280;22716;51.556;5.080;2023-04-28T06:35:09;100312.50;;;10.85;100.00
36748;BME280;22716;51.556;5.080;2023-04-28T06:37:37;100308.16;;;10.84;100.00
36748;BME280;22716;51.556;5.080;2023-04-28T06:40:08;100302.97;;;10.83;100.00
36748;BME280;22716;51.556;5.080;2023-04-28T06:42:37;100302.91;;;10.86;100.00
36748;BME280;22716;51.556;5.080;2023-04-28T06:45:08;100302.91;;;10.86;100.00
36748;BME280;22716;51.556;5.080;2023-04-28T06:47:36;100303.78;;;10.83;100.00
36748;BME280;22716;51.556;5.080;2023-04-28T06:50:09;100306.56;;;10.77;100.00
36748;BME280;22716;51.556;5.080;2023-04-28T06:52:38;100301.28;;;10.80;100.00
36748;BME280;22716;51.556;5.080;2023-04-28T06:55:08;100292.47;;;10.83;100.00
36748;BME280;22716;51.556;5.080;2023-04-28T06:57:37;100296.66;;;10.91;100.00
36748;BME280;22716;51.556;5.080;2023-04-28T07:00:08;100295.78;;;10.91;100.00
36748;BME280;22716;51.556;5.080;2023-04-28T07:02:37;100298.28;;;10.97;100.00
36748;BME280;22716;51.556;5.080;2023-04-28T07:05:09;100297.47;;;10.95;100.00
36748;BME280;22716;51.556;5.080;2023-04-28T07:07:38;100299.16;;;10.97;100.00
36748;BME280;22716;51.556;5.080;2023-04-28T07:10:08;100298.16;;;11.03;100.00
36748;BME280;22716;51.556;5.080;2023-04-28T07:12:40;100303.38;;;11.04;100.00
36748;BME280;22716;51.556;5.080;2023-04-28T07:15:10;100305.94;;;11.07;100.00
36748;BME280;22716;51.556;5.080;2023-04-28T07:17:39;100305.84;;;11.10;100.00
36748;BME280;22716;51.556;5.080;2023-04-28T07:20:11;100304.09;;;11.11;100.00
36748;BME280;22716;51.556;5.080;2023-04-28T07:22:40;100308.41;;;11.13;100.00
36748;BME280;22716;51.556;5.080;2023-04-28T07:25:09;100310.97;;;11.16;100.00
36748;BME280;22716;51.556;5.080;2023-04-28T07:27:38;100306.53;;;11.20;100.00
36748;BME280;22716;51.556;5.080;2023-04-28T07:30:07;100302.13;;;11.22;100.00
36748;BME280;22716;51.556;5.080;2023-04-28T07:32:36;100312.47;;;11.30;100.00
36748;BME280;22716;51.556;5.080;2023-04-28T07:35:06;100316.72;;;11.34;100.00
36748;BME280;22716;51.556;5.080;2023-04-28T07:37:38;100318.41;;;11.36;100.00
36748;BME280;22716;51.556;5.080;2023-04-28T07:40:08;100314.97;;;11.34;100.00
36748;BME280;22716;51.556;5.080;2023-04-28T07:42:38;100311.47;;;11.35;100.00
36748;BME280;22716;51.556;5.080;2023-04-28T07:45:08;100310.41;;;11.42;100.00
36748;BME280;22716;51.556;5.080;2023-04-28T07:47:36;100312.03;;;11.48;100.00
36748;BME280;22716;51.556;5.080;2023-04-28T07:50:07;100295.38;;;11.50;100.00
36748;BME280;22716;51.556;5.080;2023-04-28T07:52:39;100294.25;;;11.60;100.00
36748;BME280;22716;51.556;5.080;2023-04-28T07:55:08;100289.16;;;11.54;100.00
36748;BME280;22716;51.556;5.080;2023-04-28T07:57:36;100304.66;;;11.65;100.00
36748;BME280;22716;51.556;5.080;2023-04-28T08:00:08;100299.31;;;11.69;100.00
36748;BME280;22716;51.556;5.080;2023-04-28T08:02:37;100300.94;;;11.75;100.00
36748;BME280;22716;51.556;5.080;2023-04-28T08:05:07;100310.47;;;11.79;100.00
36748;BME280;22716;51.556;5.080;2023-04-28T08:07:39;100302.47;;;11.84;100.00
36748;BME280;22716;51.556;5.080;2023-04-28T08:10:09;100304.09;;;11.89;100.00
36748;BME280;22716;51.556;5.080;2023-04-28T08:12:37;100297.94;;;11.92;100.00
36748;BME280;22716;51.556;5.080;2023-04-28T08:15:08;100289.28;;;11.87;100.00
36748;BME280;22716;51.556;5.080;2023-04-28T08:17:37;100301.28;;;11.97;100.00
36748;BME280;22716;51.556;5.080;2023-04-28T08:20:07;100301.22;;;12.00;100.00
36748;BME280;22716;51.556;5.080;2023-04-28T08:22:39;100311.44;;;12.12;100.00
36748;BME280;22716;51.556;5.080;2023-04-28T08:25:09;100309.41;;;12.21;100.00
36748;BME280;22716;51.556;5.080;2023-04-28T08:27:38;100297.91;;;12.27;100.00
36748;BME280;22716;51.556;5.080;2023-04-28T08:30:09;100302.13;;;12.32;100.00
36748;BME280;22716;51.556;5.080;2023-04-28T08:32:38;100313.25;;;12.42;100.00
36748;BME280;22716;51.556;5.080;2023-04-28T08:35:07;100304.53;;;12.42;100.00
36748;BME280;22716;51.556;5.080;2023-04-28T08:37:39;100295.00;;;12.36;100.00
36748;BME280;22716;51.556;5.080;2023-04-28T08:40:09;100301.75;;;12.46;100.00
36748;BME280;22716;51.556;5.080;2023-04-28T08:42:39;100310.50;;;12.47;100.00
36748;BME280;22716;51.556;5.080;2023-04-28T08:45:12;100311.31;;;12.49;100.00
36748;BME280;22716;51.556;5.080;2023-04-28T08:47:42;100307.81;;;12.48;100.00
36748;BME280;22716;51.556;5.080;2023-04-28T08:50:15;100318.22;;;12.53;100.00
36748;BME280;22716;51.556;5.080;2023-04-28T08:52:51;100308.53;;;12.55;100.00
36748;BME280;22716;51.556;5.080;2023-04-28T08:55:20;100302.50;;;12.51;100.00
36748;BME280;22716;51.556;5.080;2023-04-28T08:57:50;100311.00;;;12.61;100.00
36748;BME280;22716;51.556;5.080;2023-04-28T09:01:24;100314.41;;;12.64;100.00
36748;BME280;22716;51.556;5.080;2023-04-28T09:04:52;100295.44;;;12.53;100.00
36748;BME280;22716;51.556;5.080;2023-04-28T09:07:21;100309.06;;;12.67;100.00
36748;BME280;22716;51.556;5.080;2023-04-28T09:10:14;100300.25;;;12.68;100.00
36748;BME280;22716;51.556;5.080;2023-04-28T09:12:43;100312.28;;;12.77;100.00
36748;BME280;22716;51.556;5.080;2023-04-28T09:17:46;100309.56;;;12.81;100.00
36748;BME280;22716;51.556;5.080;2023-04-28T09:20:20;100308.75;;;12.79;100.00
36748;BME280;22716;51.556;5.080;2023-04-28T09:22:51;100317.34;;;12.84;100.00
36748;BME280;22716;51.556;5.080;2023-04-28T09:25:22;100319.91;;;12.87;100.00
36748;BME280;22716;51.556;5.080;2023-04-28T09:27:54;100292.91;;;12.81;100.00
36748;BME280;22716;51.556;5.080;2023-04-28T09:30:37;100314.38;;;12.97;100.00
36748;BME280;22716;51.556;5.080;2023-04-28T09:33:10;100296.97;;;12.92;100.00
36748;BME280;22716;51.556;5.080;2023-04-28T09:35:42;100309.81;;;13.03;100.00
36748;BME280;22716;51.556;5.080;2023-04-28T09:38:12;100306.19;;;13.09;100.00
36748;BME280;22716;51.556;5.080;2023-04-28T09:40:53;100311.28;;;13.13;100.00
36748;BME280;22716;51.556;5.080;2023-04-28T09:43:28;100308.63;;;13.15;100.00
36748;BME280;22716;51.556;5.080;2023-04-28T09:45:57;100309.38;;;13.18;100.00
36748;BME280;22716;51.556;5.080;2023-04-28T09:48:34;100306.81;;;13.17;100.00
36748;BME280;22716;51.556;5.080;2023-04-28T09:51:05;100309.25;;;13.23;100.00
36748;BME280;22716;51.556;5.080;2023-04-28T09:53:35;100314.44;;;13.26;100.00
36748;BME280;22716;51.556;5.080;2023-04-28T09:56:06;100310.94;;;13.25;100.00
36748;BME280;22716;51.556;5.080;2023-04-28T09:58:39;100321.38;;;13.28;100.00
36748;BME280;22716;51.556;5.080;2023-04-28T10:01:10;100317.78;;;13.31;100.00
36748;BME280;22716;51.556;5.080;2023-04-28T10:03:43;100333.63;;;13.29;100.00
36748;BME280;22716;51.556;5.080;2023-04-28T10:08:37;100313.63;;;13.24;100.00
36748;BME280;22716;51.556;5.080;2023-04-28T10:11:07;100316.25;;;13.24;100.00
36748;BME280;22716;51.556;5.080;2023-04-28T10:13:57;100301.47;;;13.20;100.00
36748;BME280;22716;51.556;5.080;2023-04-28T10:19:03;100324.03;;;13.27;100.00
36748;BME280;22716;51.556;5.080;2023-04-28T10:21:35;100314.56;;;13.21;100.00
36748;BME280;22716;51.556;5.080;2023-04-28T10:24:14;100327.44;;;13.30;100.00
36748;BME280;22716;51.556;5.080;2023-04-28T10:27:01;100319.59;;;13.29;100.00
36748;BME280;22716;51.556;5.080;2023-04-28T10:29:31;100325.59;;;13.34;100.00
36748;BME280;22716;51.556;5.080;2023-04-28T10:32:16;100332.50;;;13.38;100.00
36748;BME280;22716;51.556;5.080;2023-04-28T10:34:48;100321.03;;;13.39;100.00
36748;BME280;22716;51.556;5.080;2023-04-28T10:37:18;100314.00;;;13.39;100.00
36748;BME280;22716;51.556;5.080;2023-04-28T10:42:51;100311.88;;;13.52;100.00
36748;BME280;22716;51.556;5.080;2023-04-28T10:48:23;100311.50;;;13.64;100.00
36748;BME280;22716;51.556;5.080;2023-04-28T10:51:27;100311.53;;;13.63;100.00
36748;BME280;22716;51.556;5.080;2023-04-28T10:54:16;100320.09;;;13.69;100.00
36748;BME280;22716;51.556;5.080;2023-04-28T10:57:17;100312.91;;;13.74;100.00
36748;BME280;22716;51.556;5.080;2023-04-28T10:59:47;100302.38;;;13.74;100.00
36748;BME280;22716;51.556;5.080;2023-04-28T11:02:37;100297.94;;;13.76;100.00
36748;BME280;22716;51.556;5.080;2023-04-28T11:05:15;100311.81;;;13.81;100.00
36748;BME280;22716;51.556;5.080;2023-04-28T11:11:17;100303.91;;;13.81;100.00
36748;BME280;22716;51.556;5.080;2023-04-28T11:13:48;100306.66;;;13.78;100.00
36748;BME280;22716;51.556;5.080;2023-04-28T11:16:20;100308.38;;;13.79;100.00
36748;BME280;22716;51.556;5.080;2023-04-28T11:18:58;100310.19;;;13.77;100.00
36748;BME280;22716;51.556;5.080;2023-04-28T11:21:30;100311.22;;;13.73;100.00
36748;BME280;22716;51.556;5.080;2023-04-28T11:24:00;100305.09;;;13.71;100.00
36748;BME280;22716;51.556;5.080;2023-04-28T11:26:40;100304.41;;;13.66;100.00
36748;BME280;22716;51.556;5.080;2023-04-28T11:29:10;100301.75;;;13.68;100.00
36748;BME280;22716;51.556;5.080;2023-04-28T11:31:39;100307.72;;;13.73;100.00
36748;BME280;22716;51.556;5.080;2023-04-28T11:34:10;100308.78;;;13.67;100.00
36748;BME280;22716;51.556;5.080;2023-04-28T11:36:40;100311.41;;;13.67;100.00
36748;BME280;22716;51.556;5.080;2023-04-28T11:39:10;100307.03;;;13.66;100.00
36748;BME280;22716;51.556;5.080;2023-04-28T11:41:44;100307.84;;;13.68;100.00
36748;BME280;22716;51.556;5.080;2023-04-28T11:44:14;100315.84;;;13.65;100.00
36748;BME280;22716;51.556;5.080;2023-04-28T11:46:44;100307.13;;;13.63;100.00
36748;BME280;22716;51.556;5.080;2023-04-28T11:49:17;100322.13;;;13.61;100.00
36748;BME280;22716;51.556;5.080;2023-04-28T11:51:48;100330.81;;;13.63;100.00
36748;BME280;22716;51.556;5.080;2023-04-28T11:54:21;100337.94;;;13.60;100.00
36748;BME280;22716;51.556;5.080;2023-04-28T11:56:55;100339.06;;;13.53;100.00
36748;BME280;22716;51.556;5.080;2023-04-28T11:59:26;100345.13;;;13.55;100.00
36748;BME280;22716;51.556;5.080;2023-04-28T12:01:58;100341.88;;;13.46;100.00
36748;BME280;22716;51.556;5.080;2023-04-28T12:04:29;100347.22;;;13.43;100.00
36748;BME280;22716;51.556;5.080;2023-04-28T12:07:02;100349.09;;;13.40;100.00
36748;BME280;22716;51.556;5.080;2023-04-28T12:09:33;100351.00;;;13.35;100.00
36748;BME280;22716;51.556;5.080;2023-04-28T12:12:06;100349.31;;;13.32;100.00
36748;BME280;22716;51.556;5.080;2023-04-28T12:14:55;100356.44;;;13.29;100.00
36748;BME280;22716;51.556;5.080;2023-04-28T12:17:28;100347.69;;;13.28;100.00
36748;BME280;22716;51.556;5.080;2023-04-28T12:19:58;100355.59;;;13.27;100.00
36748;BME280;22716;51.556;5.080;2023-04-28T12:22:28;100361.78;;;13.26;100.00
36748;BME280;22716;51.556;5.080;2023-04-28T12:25:05;100351.34;;;13.23;100.00
36748;BME280;22716;51.556;5.080;2023-04-28T12:27:40;100356.72;;;13.18;100.00
36748;BME280;22716;51.556;5.080;2023-04-28T12:30:25;100362.81;;;13.20;100.00
36748;BME280;22716;51.556;5.080;2023-04-28T12:32:54;100360.13;;;13.22;100.00
36748;BME280;22716;51.556;5.080;2023-04-28T12:35:23;100359.16;;;13.26;100.00
36748;BME280;22716;51.556;5.080;2023-04-28T12:37:54;100362.59;;;13.28;100.00
36748;BME280;22716;51.556;5.080;2023-04-28T12:40:24;100360.75;;;13.31;100.00
36748;BME280;22716;51.556;5.080;2023-04-28T12:42:55;100368.19;;;13.46;100.00
36748;BME280;22716;51.556;5.080;2023-04-28T12:45:25;100365.56;;;13.74;100.00
36748;BME280;22716;51.556;5.080;2023-04-28T12:47:56;100368.16;;;14.03;100.00
36748;BME280;22716;51.556;5.080;2023-04-28T12:50:26;100366.44;;;14.02;100.00
36748;BME280;22716;51.556;5.080;2023-04-28T12:52:57;100365.63;;;14.00;100.00
36748;BME280;22716;51.556;5.080;2023-04-28T12:55:26;100355.28;;;13.94;100.00
36748;BME280;22716;51.556;5.080;2023-04-28T12:57:59;100376.16;;;14.00;100.00
36748;BME280;22716;51.556;5.080;2023-04-28T13:00:29;100373.50;;;14.00;100.00
36748;BME280;22716;51.556;5.080;2023-04-28T13:02:58;100376.06;;;14.03;100.00
36748;BME280;22716;51.556;5.080;2023-04-28T13:05:26;100384.31;;;14.21;100.00
36748;BME280;22716;51.556;5.080;2023-04-28T13:07:55;100381.50;;;14.53;100.00
36748;BME280;22716;51.556;5.080;2023-04-28T13:10:26;100376.44;;;14.72;100.00
36748;BME280;22716;51.556;5.080;2023-04-28T13:12:58;100378.81;;;14.79;100.00
36748;BME280;22716;51.556;5.080;2023-04-28T13:15:28;100378.81;;;14.79;100.00
36748;BME280;22716;51.556;5.080;2023-04-28T13:17:58;100377.31;;;14.72;100.00
36748;BME280;22716;51.556;5.080;2023-04-28T13:20:28;100376.22;;;14.78;100.00
36748;BME280;22716;51.556;5.080;2023-04-28T13:22:57;100391.56;;;14.91;100.00